Terminal Aerodrome Forecast
Issued by NWS Dodge City, KS

Home | Current Version | Previous Version | Text Only | Print | Product List | Glossary On
Versions: 1 2 3 4 5 6 7 8 9 10 11 12 13 14 15 16 17 18 19 20 21 22 23 24 25 26
264
FTUS43 KDDC 252332
TAFDDC
TAF
KDDC 252332Z 2600/2624 16012KT P6SM BKN100
     FM260100 VRB25G35KT P6SM VCTS BKN045CB
     FM260400 01009KT P6SM BKN250=

USA.gov is the U.S. government's official web portal to all federal, state and local government web resources and services.